Welcome to our Virtual Airline
Sign-in:

Flight KHKDIV

  • Submitted By: Karl Klotz
  • Departure Airport: Mistys Place (Ramp) (PF20)
  • Arrival Airport: Bell Island Hot Springs (KBE)
  • Aircraft: L-19/O-1 (N019MM)
  • Flight Time: 00.33.10
  • Date Submitted: 21/04/24
  • Route: DIRECT
  • Status: Accepted
Flight Details
Gross Revenue:
(1 load / $ 0.00 per unit
$ 0.00
Fuel Cost:
(15.4221 fuel used @ 0 / unit)
$ 0.00

Additional Log Information:

View Log

[16:05] ----- Flight Opened -----
[16:05] Cigar Box - 1.1.4.0
[16:05] FS:
[16:05] FSUIPC: v7,008
[16:05] Flight Number: KHKDIV
[16:05] FS Aircraft: Cessna L-19 Bird Dog CIVIL Amphibian
[16:05] FS Model: L19
[16:05] FS Type: BIRDDOG
[16:05] Departure: PF20
[16:05] Arrival: KBE
[16:05] Flight Level: 3000
[16:05] Flight Type: H
[16:05] Passengers: 1
[16:05] FOB: 131 lbs
[16:05] Gate: n/a
[16:05] NOTE: Parking Brake Ignored
[16:05] Crash Detection: Disabled
[16:05] Crash Detection Aircraft: Disabled
[16:05] Engines: 1 Piston
[16:05] NOTE: Boarding has started
[16:05] Parking Brake: Engaged
[16:05] Landing Gear: Retracted
[16:05] Flaps: Position 1
[16:05] Main Door Closed
[16:05] COM1: 124.85
[16:05] COM2: 124.85
[16:05] Transponder: 0000
[16:05] NAV1: 100.00
[16:05] NAV2: 113.90
[16:05] ADF1: 890.0
[16:05] ADF2: 890.0
[16:05] Navigation Mode: NAV
[16:06] Engine 1: Started
[16:06] Parking Brake: Released
[16:06] NOTE: Taxi started
[16:06] NOTE: ----- TAKE OFF -----
[16:06] GS: 60 knots
[16:06] TAS: 60 knots
[16:06] IAS: 60 knots
[16:06] VS: 66 fpm
[16:06] FOB: 130 lbs
[16:06] Heading: 170°
[16:06] Pitch: 6°
[16:06] Bank: 0°
[16:06] Aircraft Weight: 2284,62 lbs
[16:06] Nearest Airport: PF20
[16:06] Distance: 0,46 miles
[16:06] Runway: ???
[16:06] Ground Surface: Grass
[16:06] Ground Condition: Normal
[16:06] NOTE: Weather Report
[16:06] Wind Heading: 251°
[16:06] Wind Speed: 1 knots
[16:06] OAT: 14° C
[16:06] TAT: 15° C
[16:06] Precipitation: None
[16:06] Dew Point: 0° C
[16:06] Visibility: 86 miles
[16:06] METAR:
[16:07] NOTE: Climb started
[16:07] View Mode: Spot Plane
[16:07] Flaps: Position 0
[16:07] GS: 52 knots
[16:07] TAS: 54 knots
[16:07] IAS: 53 knots
[16:07] VS: 563 fpm
[16:08] Autopilot: Engaged
[16:08] AGL: 807 ft
[16:08] AMSL: 807 ft
[16:08] Autopilot: Disengaged
[16:08] AGL: 817 ft
[16:08] AMSL: 849 ft
[16:12] NOTE: TOC reached
[16:12] NOTE: Cruise started
[16:12] GS: 87 knots
[16:12] TAS: 89 knots
[16:12] IAS: 87 knots
[16:12] VS: 173 fpm
[16:12] FOB: 123 lbs
[16:12] Heading: 328°
[16:12] Pitch: 1°
[16:12] Bank: 1°
[16:12] Aircraft Weight: 2277,39 lbs
[16:15] Light Data: Beacon ON
[16:15] Light Data: Instrument lights ON
[16:15] Light Data: Strobe lights ON
[16:15] Light Data: Landing lights ON
[16:15] AGL: 2487 ft
[16:15] AMSL: 2608 ft
[16:15] Light Data: Landing lights OFF
[16:15] AGL: 2464 ft
[16:15] AMSL: 2608 ft
[16:15] Light Data: Taxi lights ON
[16:15] Light Data: Taxi lights OFF
[16:18] Engine 1: Stopped
[16:18] Engine 1: Started
[16:27] Light Data: Taxi lights ON
[16:27] Light Data: Taxi lights OFF
[16:32] NOTE: TOD reached
[16:32] NOTE: Descent started
[16:32] GS: 91 knots
[16:32] TAS: 92 knots
[16:32] IAS: 89 knots
[16:32] VS: -417 fpm
[16:32] FOB: 100 lbs
[16:32] Heading: 353°
[16:32] Pitch: 2°
[16:32] Bank: 0°
[16:32] Aircraft Weight: 2254,89 lbs
[16:32] NOTE: On approach
[16:33] FS: Paused
[16:34] FS: Unpaused
[16:34] FS: Paused
[16:36] FS: Unpaused
[16:36] Engine 1: Stopped
[16:36] Engine 1: Started
[16:36] Engine 1: Stopped
[16:36] Engine 1: Started
[16:36] FS: Paused
[16:38] FS: Unpaused
[16:40] Flaps: Position 1
[16:40] GS: 71 knots
[16:40] TAS: 72 knots
[16:40] IAS: 70 knots
[16:40] VS: -126 fpm
[16:42] Flaps: Position 2
[16:42] GS: 75 knots
[16:42] TAS: 76 knots
[16:42] IAS: 76 knots
[16:42] VS: -1230 fpm
[16:42] Flaps: Position 3
[16:42] GS: 69 knots
[16:42] TAS: 69 knots
[16:42] IAS: 69 knots
[16:42] VS: -653 fpm
[16:42] NOTE: ----- LANDED -----
[16:42] Landing Rate: -47,67 fpm
[16:42] GS: 40 knots
[16:42] TAS: 40 knots
[16:42] IAS: 40 knots
[16:42] VS: -47 fpm
[16:42] FOB: 97 lbs
[16:42] Heading: 43°
[16:42] Pitch: 4°
[16:42] Bank: 0°
[16:42] Aircraft Weight: 2251,73 lbs
[16:42] Nearest Airport: KBE
[16:42] Distance: 0,75 miles
[16:42] Runway: ???
[16:42] Ground Surface: Water
[16:42] Ground Condition: Normal
[16:42] NOTE: Weather Report
[16:42] Wind Heading: 246°
[16:42] Wind Speed: 1 knots
[16:42] OAT: 15° C
[16:42] TAT: 15° C
[16:42] Precipitation: None
[16:42] Dew Point: 0° C
[16:42] Visibility: 86 miles
[16:42] METAR: KBEA 241415Z AUTO 33005KT 10SM CLR 25/23 A2985 RMK AO2 T02460225 KBEH 241353Z AUTO 12004KT 10SM OVC044 10/06 A2991 RMK AO2 SLP130 T01000056 KBED 241351Z 28009KT 10SM CLR 17/00 A2990 RMK AO2 SLP136 T01720000 KBEC 241415Z AUTO 36013G16KT 10SM CLR 09/06 A2998 RMK AO2 T00880056
[16:42] View Mode: Virtual Cockpit
[16:42] NOTE: Taxi started
[16:43] Gate: n/a
[16:43] NOTE: Flight Completed
[16:43] FS Aircraft: Cessna L-19 Bird Dog CIVIL Amphibian
[16:43] FS Model: L19
[16:43] FS Type: BIRDDOG
[16:43] FOB: 97 lbs
[16:43] Fuel Used: 34 lbs
[16:43] Flight Time: 00:33:10
[16:43] Flight Time (Dawn): 00:00:00
[16:43] Flight Time (Day): 00:33:10
[16:43] Flight Time (Dusk): 00:00:00
[16:43] Flight Time (Night): 00:00:00
[16:43] Total Landings: 1
[16:43] MaxSim Rate: 1x
[16:43] Cigar Box - 1.1.4.0
[16:43] ----- Flight Closed -----

Route Map